Orbital elements of COSMOS 2251 DEB
| Launched | 15 June 1993 |
| Flight ended | – |
| Launch site | Plesetsk Missile and Space Complex, Russia |
| Owner | Commonwealth of Independent States (former USSR) |
| NORAD ID | 34813 |
| Date fetched |
Epoch osculation |
Inc. [°] |
Ecc. | RA asc node [hr] |
Arg Peri. [°] |
Mean anom [°] |
Mean motion [rev/day] |
Abs. mag |
| Date fetched |
Epoch osculation |
Inc. [°] |
Ecc. | RA asc node [hr] |
Arg Peri. [°] |
Mean anom [°] |
Mean motion [rev/day] |
Abs. mag |
| 2026 May 03 17:57 | 2026 Apr 29 09:48:36 | 73.9287 | 0.04347 | 18.1119 | 279.7656 | 75.4636 | 13.51244 | – |
| 2026 May 02 17:57 | 2026 Apr 29 09:48:36 | 73.9287 | 0.04347 | 18.1119 | 279.7656 | 75.4636 | 13.51244 | – |
| 2026 May 01 17:56 | 2026 Apr 29 09:48:36 | 73.9287 | 0.04347 | 18.1119 | 279.7656 | 75.4636 | 13.51244 | – |
| 2026 Apr 30 17:56 | 2026 Apr 29 09:48:36 | 73.9287 | 0.04347 | 18.1119 | 279.7656 | 75.4636 | 13.51244 | – |
| 2026 Apr 29 17:57 | 2026 Apr 24 10:45:52 | 73.9296 | 0.04343 | 18.6442 | 288.7538 | 75.4636 | 13.51244 | – |
| 2026 Apr 28 17:56 | 2026 Apr 24 10:45:52 | 73.9296 | 0.04343 | 18.6442 | 288.7538 | 75.4636 | 13.51244 | – |
| 2026 Apr 27 17:58 | 2026 Apr 24 10:45:52 | 73.9296 | 0.04343 | 18.6442 | 288.7538 | 75.4636 | 13.51244 | – |
| 2026 Apr 26 17:58 | 2026 Apr 24 10:45:52 | 73.9296 | 0.04343 | 18.6442 | 288.7538 | 75.4636 | 13.51244 | – |
| 2026 Apr 25 17:58 | 2026 Apr 24 10:45:52 | 73.9296 | 0.04343 | 18.6442 | 288.7538 | 75.4636 | 13.51244 | – |
| 2026 Apr 24 17:59 | 2026 Apr 24 10:45:52 | 73.9296 | 0.04343 | 18.6442 | 288.7538 | 75.4636 | 13.51244 | – |
| 2026 Apr 23 17:57 | 2026 Apr 18 21:30:08 | 73.9306 | 0.04341 | 19.2400 | 298.8084 | 75.4636 | 13.51244 | – |
| 2026 Apr 22 17:57 | 2026 Apr 18 21:30:08 | 73.9306 | 0.04341 | 19.2400 | 298.8084 | 75.4636 | 13.51244 | – |
| 2026 Apr 21 17:57 | 2026 Apr 18 21:30:08 | 73.9306 | 0.04341 | 19.2400 | 298.8084 | 75.4636 | 13.51244 | – |
| 2026 Apr 20 17:57 | 2026 Apr 18 21:30:08 | 73.9306 | 0.04341 | 19.2400 | 298.8084 | 75.4636 | 13.51244 | – |
| 2026 Apr 19 17:58 | 2026 Apr 18 21:30:08 | 73.9306 | 0.04341 | 19.2400 | 298.8084 | 75.4636 | 13.51244 | – |
| 2026 Apr 18 17:56 | 2026 Apr 12 23:21:16 | 73.9326 | 0.04353 | 19.8757 | 309.5164 | 75.4636 | 13.51244 | – |
| 2026 Apr 16 17:57 | 2026 Apr 12 23:21:16 | 73.9326 | 0.04353 | 19.8757 | 309.5164 | 75.4636 | 13.51244 | – |
| 2026 Apr 14 17:57 | 2026 Apr 12 23:21:16 | 73.9326 | 0.04353 | 19.8757 | 309.5164 | 75.4636 | 13.51244 | – |
| 2026 Apr 13 17:57 | 2026 Apr 12 23:21:16 | 73.9326 | 0.04353 | 19.8757 | 309.5164 | 75.4636 | 13.51244 | – |
| 2026 Apr 12 17:57 | 2026 Apr 07 13:38:35 | 73.9296 | 0.04358 | 20.4550 | 319.2018 | 75.4636 | 13.51244 | – |
| 2026 Apr 11 17:57 | 2026 Apr 07 13:38:35 | 73.9296 | 0.04358 | 20.4550 | 319.2018 | 75.4636 | 13.51244 | – |
| 2026 Apr 10 17:58 | 2026 Apr 07 13:38:35 | 73.9296 | 0.04358 | 20.4550 | 319.2018 | 75.4636 | 13.51244 | – |
| 2026 Apr 09 18:01 | 2026 Apr 07 13:38:35 | 73.9296 | 0.04358 | 20.4550 | 319.2018 | 75.4636 | 13.51244 | – |
| 2026 Apr 08 17:57 | 2026 Apr 07 13:38:35 | 73.9296 | 0.04358 | 20.4550 | 319.2018 | 75.4636 | 13.51244 | – |
| 2026 Apr 07 17:57 | 2026 Mar 31 14:36:53 | 73.9338 | 0.04357 | 21.2020 | 331.7268 | 75.4636 | 13.51244 | – |
| 2026 Apr 06 17:57 | 2026 Mar 31 14:36:53 | 73.9338 | 0.04357 | 21.2020 | 331.7268 | 75.4636 | 13.51244 | – |